Kinzua, Oregon
Current Conditions -  °F | °C
As of 7:55 AM on Friday 24 Oct 2014 (Local Time) from KS39 Reporting Station
Broken Clouds Broken Clouds  
Wind Chill: 46°   Ceiling: 4900
Heat Index: 46°   Visibility: 10mi
Dew Point: 45°   Wind: 0mph
Humidity: 93%   Direction: NA
Pressure: 30.05"   Gusts: NA
Location:  44.9464°N, 120.192°W
Report Text: KS39 241455Z AUTO 00000KT 10SM BKN049 08/07 A3005 RMK AO2 LTG DSNT NW
Loading
Personal Weather Stations






























Interactive Weather Map
Tropical Storm Tracking
New forecast layout! Learn more

10-Day Weather Forecast

Advertisements
Track Severe Weather on mobile